sensor_id;sensor_type;location;lat;lon;timestamp;temperature;humidity
21770;DHT22;11046;49.558;8.674;2022-09-02T00:02:58;17.30;59.90
21770;DHT22;11046;49.558;8.674;2022-09-02T00:05:59;17.20;60.00
21770;DHT22;11046;49.558;8.674;2022-09-02T00:09:03;17.10;60.10
21770;DHT22;11046;49.558;8.674;2022-09-02T00:12:05;17.10;60.20
21770;DHT22;11046;49.558;8.674;2022-09-02T00:15:06;17.10;60.30
21770;DHT22;11046;49.558;8.674;2022-09-02T00:18:08;17.10;60.50
21770;DHT22;11046;49.558;8.674;2022-09-02T00:21:14;17.00;60.40
21770;DHT22;11046;49.558;8.674;2022-09-02T00:24:15;17.00;60.60
21770;DHT22;11046;49.558;8.674;2022-09-02T00:27:16;16.90;60.80
21770;DHT22;11046;49.558;8.674;2022-09-02T00:30:17;16.90;61.00
21770;DHT22;11046;49.558;8.674;2022-09-02T00:33:19;16.90;61.10
21770;DHT22;11046;49.558;8.674;2022-09-02T00:36:20;16.80;61.10
21770;DHT22;11046;49.558;8.674;2022-09-02T00:39:21;16.80;61.00
21770;DHT22;11046;49.558;8.674;2022-09-02T00:42:22;16.80;61.20
21770;DHT22;11046;49.558;8.674;2022-09-02T00:45:23;16.80;61.30
21770;DHT22;11046;49.558;8.674;2022-09-02T00:48:24;16.70;61.40
21770;DHT22;11046;49.558;8.674;2022-09-02T00:51:29;16.70;61.50
21770;DHT22;11046;49.558;8.674;2022-09-02T00:54:33;16.70;61.30
21770;DHT22;11046;49.558;8.674;2022-09-02T00:57:39;16.70;61.20
21770;DHT22;11046;49.558;8.674;2022-09-02T01:00:43;16.70;61.20
21770;DHT22;11046;49.558;8.674;2022-09-02T01:03:45;16.70;61.20
21770;DHT22;11046;49.558;8.674;2022-09-02T01:06:46;16.70;61.30
21770;DHT22;11046;49.558;8.674;2022-09-02T01:09:48;16.60;61.20
21770;DHT22;11046;49.558;8.674;2022-09-02T01:12:55;16.60;61.30
21770;DHT22;11046;49.558;8.674;2022-09-02T01:16:03;16.50;61.70
21770;DHT22;11046;49.558;8.674;2022-09-02T01:19:09;16.40;62.00
21770;DHT22;11046;49.558;8.674;2022-09-02T01:22:23;16.30;62.00
21770;DHT22;11046;49.558;8.674;2022-09-02T01:25:28;16.20;62.20
21770;DHT22;11046;49.558;8.674;2022-09-02T01:28:30;16.20;62.20
21770;DHT22;11046;49.558;8.674;2022-09-02T01:31:33;16.20;62.20
21770;DHT22;11046;49.558;8.674;2022-09-02T01:34:34;16.20;62.30
21770;DHT22;11046;49.558;8.674;2022-09-02T01:37:35;16.20;62.50
21770;DHT22;11046;49.558;8.674;2022-09-02T01:40:38;16.20;62.50
21770;DHT22;11046;49.558;8.674;2022-09-02T01:43:39;16.20;62.50
21770;DHT22;11046;49.558;8.674;2022-09-02T01:46:40;16.20;62.30
21770;DHT22;11046;49.558;8.674;2022-09-02T01:49:41;16.20;62.10
21770;DHT22;11046;49.558;8.674;2022-09-02T01:52:42;16.20;62.00
21770;DHT22;11046;49.558;8.674;2022-09-02T01:55:43;16.10;62.00
21770;DHT22;11046;49.558;8.674;2022-09-02T01:58:45;16.20;62.20
21770;DHT22;11046;49.558;8.674;2022-09-02T02:01:46;16.20;62.20
21770;DHT22;11046;49.558;8.674;2022-09-02T02:04:47;16.10;62.20
21770;DHT22;11046;49.558;8.674;2022-09-02T02:07:49;16.00;62.30
21770;DHT22;11046;49.558;8.674;2022-09-02T02:10:50;16.00;62.30
21770;DHT22;11046;49.558;8.674;2022-09-02T02:13:51;15.90;62.50
21770;DHT22;11046;49.558;8.674;2022-09-02T02:16:55;15.80;62.80
21770;DHT22;11046;49.558;8.674;2022-09-02T02:19:55;15.80;63.00
21770;DHT22;11046;49.558;8.674;2022-09-02T02:22:56;15.80;63.00
21770;DHT22;11046;49.558;8.674;2022-09-02T02:25:57;15.70;63.10
21770;DHT22;11046;49.558;8.674;2022-09-02T02:28:57;15.60;63.40
21770;DHT22;11046;49.558;8.674;2022-09-02T02:32:00;15.40;63.80
21770;DHT22;11046;49.558;8.674;2022-09-02T02:35:02;15.40;64.20
21770;DHT22;11046;49.558;8.674;2022-09-02T02:38:04;15.30;64.30
21770;DHT22;11046;49.558;8.674;2022-09-02T02:41:06;15.20;65.50
21770;DHT22;11046;49.558;8.674;2022-09-02T02:44:07;15.20;64.80
21770;DHT22;11046;49.558;8.674;2022-09-02T02:47:10;15.20;64.80
21770;DHT22;11046;49.558;8.674;2022-09-02T02:50:15;15.10;65.00
21770;DHT22;11046;49.558;8.674;2022-09-02T02:53:16;15.10;65.10
21770;DHT22;11046;49.558;8.674;2022-09-02T02:56:16;15.00;65.30
21770;DHT22;11046;49.558;8.674;2022-09-02T02:59:17;15.00;65.30
21770;DHT22;11046;49.558;8.674;2022-09-02T03:02:18;15.00;65.10
21770;DHT22;11046;49.558;8.674;2022-09-02T03:05:21;15.00;65.00
21770;DHT22;11046;49.558;8.674;2022-09-02T03:08:22;15.10;65.00
21770;DHT22;11046;49.558;8.674;2022-09-02T03:11:26;15.00;64.80
21770;DHT22;11046;49.558;8.674;2022-09-02T03:14:28;15.10;64.90
21770;DHT22;11046;49.558;8.674;2022-09-02T03:17:29;15.10;64.70
21770;DHT22;11046;49.558;8.674;2022-09-02T03:20:30;15.20;64.50
21770;DHT22;11046;49.558;8.674;2022-09-02T03:23:34;15.30;64.30
21770;DHT22;11046;49.558;8.674;2022-09-02T03:26:36;15.30;63.90
21770;DHT22;11046;49.558;8.674;2022-09-02T03:29:37;15.30;63.80
21770;DHT22;11046;49.558;8.674;2022-09-02T03:32:38;15.30;63.80
21770;DHT22;11046;49.558;8.674;2022-09-02T03:35:41;15.30;63.90
21770;DHT22;11046;49.558;8.674;2022-09-02T03:38:43;15.20;64.00
21770;DHT22;11046;49.558;8.674;2022-09-02T03:41:44;15.10;64.20
21770;DHT22;11046;49.558;8.674;2022-09-02T03:44:46;15.00;64.40
21770;DHT22;11046;49.558;8.674;2022-09-02T03:47:47;15.00;64.70
21770;DHT22;11046;49.558;8.674;2022-09-02T03:50:54;14.90;64.80
21770;DHT22;11046;49.558;8.674;2022-09-02T03:53:55;14.90;64.80
21770;DHT22;11046;49.558;8.674;2022-09-02T03:56:57;14.80;64.80
21770;DHT22;11046;49.558;8.674;2022-09-02T03:59:58;14.80;64.90
21770;DHT22;11046;49.558;8.674;2022-09-02T04:03:01;14.80;64.90
21770;DHT22;11046;49.558;8.674;2022-09-02T04:06:02;14.80;65.20
21770;DHT22;11046;49.558;8.674;2022-09-02T04:09:06;14.70;65.00
21770;DHT22;11046;49.558;8.674;2022-09-02T04:15:32;14.70;65.10
21770;DHT22;11046;49.558;8.674;2022-09-02T04:18:34;14.70;65.20
21770;DHT22;11046;49.558;8.674;2022-09-02T04:21:38;14.60;65.30
21770;DHT22;11046;49.558;8.674;2022-09-02T04:24:40;14.60;65.40
21770;DHT22;11046;49.558;8.674;2022-09-02T04:27:41;14.60;65.70
21770;DHT22;11046;49.558;8.674;2022-09-02T04:30:43;14.60;65.60
21770;DHT22;11046;49.558;8.674;2022-09-02T04:33:46;14.50;65.60
21770;DHT22;11046;49.558;8.674;2022-09-02T04:36:49;14.50;65.80
21770;DHT22;11046;49.558;8.674;2022-09-02T04:39:53;14.40;65.90
21770;DHT22;11046;49.558;8.674;2022-09-02T04:42:56;14.40;66.10
21770;DHT22;11046;49.558;8.674;2022-09-02T04:45:58;14.40;66.00
21770;DHT22;11046;49.558;8.674;2022-09-02T04:48:59;14.40;65.90
21770;DHT22;11046;49.558;8.674;2022-09-02T04:52:01;14.40;65.90
21770;DHT22;11046;49.558;8.674;2022-09-02T04:55:03;14.40;65.70
21770;DHT22;11046;49.558;8.674;2022-09-02T04:58:08;14.40;65.90
21770;DHT22;11046;49.558;8.674;2022-09-02T05:01:13;14.40;65.90
21770;DHT22;11046;49.558;8.674;2022-09-02T05:04:16;14.40;65.90
21770;DHT22;11046;49.558;8.674;2022-09-02T05:07:20;14.40;66.00
21770;DHT22;11046;49.558;8.674;2022-09-02T05:10:22;14.30;66.20
21770;DHT22;11046;49.558;8.674;2022-09-02T05:13:24;14.30;66.30
21770;DHT22;11046;49.558;8.674;2022-09-02T05:16:33;14.20;66.50
21770;DHT22;11046;49.558;8.674;2022-09-02T05:19:36;14.20;66.80
21770;DHT22;11046;49.558;8.674;2022-09-02T05:22:37;14.20;66.60
21770;DHT22;11046;49.558;8.674;2022-09-02T05:25:49;14.20;66.70
21770;DHT22;11046;49.558;8.674;2022-09-02T05:28:51;14.20;66.70
21770;DHT22;11046;49.558;8.674;2022-09-02T05:31:52;14.10;66.80
21770;DHT22;11046;49.558;8.674;2022-09-02T05:34:56;14.10;67.10
21770;DHT22;11046;49.558;8.674;2022-09-02T05:37:57;14.20;67.30
21770;DHT22;11046;49.558;8.674;2022-09-02T05:40:58;14.10;67.40
21770;DHT22;11046;49.558;8.674;2022-09-02T05:44:09;14.10;67.30
21770;DHT22;11046;49.558;8.674;2022-09-02T05:47:11;14.10;67.40
21770;DHT22;11046;49.558;8.674;2022-09-02T05:50:12;14.20;67.40
21770;DHT22;11046;49.558;8.674;2022-09-02T05:53:14;14.30;66.90
21770;DHT22;11046;49.558;8.674;2022-09-02T05:56:16;14.40;66.40
21770;DHT22;11046;49.558;8.674;2022-09-02T05:59:20;14.60;66.20
21770;DHT22;11046;49.558;8.674;2022-09-02T06:02:23;14.80;65.60
21770;DHT22;11046;49.558;8.674;2022-09-02T06:05:25;15.00;65.00
21770;DHT22;11046;49.558;8.674;2022-09-02T06:08:47;15.00;64.50
21770;DHT22;11046;49.558;8.674;2022-09-02T06:11:50;15.20;64.00
21770;DHT22;11046;49.558;8.674;2022-09-02T06:14:55;15.40;63.40
21770;DHT22;11046;49.558;8.674;2022-09-02T06:17:57;15.60;62.80
21770;DHT22;11046;49.558;8.674;2022-09-02T06:21:02;15.70;62.50
21770;DHT22;11046;49.558;8.674;2022-09-02T06:24:10;15.80;62.20
21770;DHT22;11046;49.558;8.674;2022-09-02T06:27:11;16.00;62.00
21770;DHT22;11046;49.558;8.674;2022-09-02T06:30:16;16.20;61.50
21770;DHT22;11046;49.558;8.674;2022-09-02T06:33:17;16.60;61.00
21770;DHT22;11046;49.558;8.674;2022-09-02T06:36:18;17.00;60.50
21770;DHT22;11046;49.558;8.674;2022-09-02T06:39:20;17.20;59.70
21770;DHT22;11046;49.558;8.674;2022-09-02T06:42:23;17.50;59.30
21770;DHT22;11046;49.558;8.674;2022-09-02T06:45:53;17.90;58.80
21770;DHT22;11046;49.558;8.674;2022-09-02T06:48:55;18.10;58.30
21770;DHT22;11046;49.558;8.674;2022-09-02T06:51:57;18.40;57.70
21770;DHT22;11046;49.558;8.674;2022-09-02T06:55:04;18.70;56.90
21770;DHT22;11046;49.558;8.674;2022-09-02T06:58:05;18.90;56.30
21770;DHT22;11046;49.558;8.674;2022-09-02T07:01:07;19.10;55.90
21770;DHT22;11046;49.558;8.674;2022-09-02T07:04:11;19.40;55.40
21770;DHT22;11046;49.558;8.674;2022-09-02T07:07:34;19.70;54.90
21770;DHT22;11046;49.558;8.674;2022-09-02T07:10:54;20.00;54.50
21770;DHT22;11046;49.558;8.674;2022-09-02T07:13:59;20.30;53.90
21770;DHT22;11046;49.558;8.674;2022-09-02T07:17:13;20.70;54.20
21770;DHT22;11046;49.558;8.674;2022-09-02T07:20:26;21.00;53.30
21770;DHT22;11046;49.558;8.674;2022-09-02T07:23:38;21.40;52.50
21770;DHT22;11046;49.558;8.674;2022-09-02T07:26:47;21.60;51.70
21770;DHT22;11046;49.558;8.674;2022-09-02T07:29:52;21.90;51.10
21770;DHT22;11046;49.558;8.674;2022-09-02T07:32:58;22.10;50.30
21770;DHT22;11046;49.558;8.674;2022-09-02T07:36:04;22.30;49.40
21770;DHT22;11046;49.558;8.674;2022-09-02T07:39:12;22.40;48.80
21770;DHT22;11046;49.558;8.674;2022-09-02T07:42:15;22.60;48.60
21770;DHT22;11046;49.558;8.674;2022-09-02T07:45:18;22.70;48.10
21770;DHT22;11046;49.558;8.674;2022-09-02T07:48:24;23.00;47.30
21770;DHT22;11046;49.558;8.674;2022-09-02T07:51:33;22.90;46.70
21770;DHT22;11046;49.558;8.674;2022-09-02T07:54:39;23.00;46.30
21770;DHT22;11046;49.558;8.674;2022-09-02T07:57:52;23.20;46.20
21770;DHT22;11046;49.558;8.674;2022-09-02T08:01:00;23.50;45.50
21770;DHT22;11046;49.558;8.674;2022-09-02T08:04:06;23.60;45.20
21770;DHT22;11046;49.558;8.674;2022-09-02T08:07:17;23.80;44.80
21770;DHT22;11046;49.558;8.674;2022-09-02T08:10:24;23.90;44.50
21770;DHT22;11046;49.558;8.674;2022-09-02T08:13:31;23.90;43.70
21770;DHT22;11046;49.558;8.674;2022-09-02T08:16:32;23.80;43.60
21770;DHT22;11046;49.558;8.674;2022-09-02T08:19:34;23.90;43.40
21770;DHT22;11046;49.558;8.674;2022-09-02T08:22:40;24.00;43.00
21770;DHT22;11046;49.558;8.674;2022-09-02T08:25:43;24.30;43.00
21770;DHT22;11046;49.558;8.674;2022-09-02T08:28:46;24.60;42.60
21770;DHT22;11046;49.558;8.674;2022-09-02T08:31:54;24.90;41.90
21770;DHT22;11046;49.558;8.674;2022-09-02T08:34:58;25.20;41.50
21770;DHT22;11046;49.558;8.674;2022-09-02T08:38:07;25.30;40.60
21770;DHT22;11046;49.558;8.674;2022-09-02T08:44:36;25.20;39.70
21770;DHT22;11046;49.558;8.674;2022-09-02T08:47:41;25.40;39.90
21770;DHT22;11046;49.558;8.674;2022-09-02T08:50:53;25.70;39.60
21770;DHT22;11046;49.558;8.674;2022-09-02T08:57:57;25.70;38.20
21770;DHT22;11046;49.558;8.674;2022-09-02T09:18:36;26.30;36.40
21770;DHT22;11046;49.558;8.674;2022-09-02T09:21:42;26.10;37.00
21770;DHT22;11046;49.558;8.674;2022-09-02T09:24:48;26.20;36.70
21770;DHT22;11046;49.558;8.674;2022-09-02T09:27:55;26.30;36.30
21770;DHT22;11046;49.558;8.674;2022-09-02T09:31:02;26.20;36.20
21770;DHT22;11046;49.558;8.674;2022-09-02T09:34:13;26.10;35.60
21770;DHT22;11046;49.558;8.674;2022-09-02T09:37:29;26.20;35.70
21770;DHT22;11046;49.558;8.674;2022-09-02T09:40:41;26.20;35.20
21770;DHT22;11046;49.558;8.674;2022-09-02T09:43:48;26.30;35.00
21770;DHT22;11046;49.558;8.674;2022-09-02T09:47:03;26.20;34.80
21770;DHT22;11046;49.558;8.674;2022-09-02T09:50:17;26.20;34.20
21770;DHT22;11046;49.558;8.674;2022-09-02T09:53:28;26.20;34.00
21770;DHT22;11046;49.558;8.674;2022-09-02T09:56:35;26.20;33.30
21770;DHT22;11046;49.558;8.674;2022-09-02T09:59:45;26.20;33.50
21770;DHT22;11046;49.558;8.674;2022-09-02T10:02:57;26.30;33.30
21770;DHT22;11046;49.558;8.674;2022-09-02T10:06:24;26.40;33.40
21770;DHT22;11046;49.558;8.674;2022-09-02T10:09:32;26.60;32.60
21770;DHT22;11046;49.558;8.674;2022-09-02T10:12:42;26.40;32.90
21770;DHT22;11046;49.558;8.674;2022-09-02T10:26:36;27.10;32.40
21770;DHT22;11046;49.558;8.674;2022-09-02T10:40:28;27.60;31.50
21770;DHT22;11046;49.558;8.674;2022-09-02T10:43:53;27.90;31.50
21770;DHT22;11046;49.558;8.674;2022-09-02T10:47:17;27.90;30.90
21770;DHT22;11046;49.558;8.674;2022-09-02T10:50:50;27.60;30.90
21770;DHT22;11046;49.558;8.674;2022-09-02T10:57:49;27.80;31.30
21770;DHT22;11046;49.558;8.674;2022-09-02T11:00:57;28.00;31.20
21770;DHT22;11046;49.558;8.674;2022-09-02T11:04:21;28.10;31.20
21770;DHT22;11046;49.558;8.674;2022-09-02T11:08:05;28.20;30.50
21770;DHT22;11046;49.558;8.674;2022-09-02T11:11:45;28.20;30.00
21770;DHT22;11046;49.558;8.674;2022-09-02T11:15:01;27.90;30.20
21770;DHT22;11046;49.558;8.674;2022-09-02T11:25:18;27.80;30.40
21770;DHT22;11046;49.558;8.674;2022-09-02T11:28:42;27.90;30.30
21770;DHT22;11046;49.558;8.674;2022-09-02T11:32:04;27.80;30.40
21770;DHT22;11046;49.558;8.674;2022-09-02T11:39:14;28.00;31.00
21770;DHT22;11046;49.558;8.674;2022-09-02T11:42:38;28.20;30.50
21770;DHT22;11046;49.558;8.674;2022-09-02T11:49:34;28.10;30.40
21770;DHT22;11046;49.558;8.674;2022-09-02T11:53:01;28.30;30.80
21770;DHT22;11046;49.558;8.674;2022-09-02T11:56:19;28.40;30.40
21770;DHT22;11046;49.558;8.674;2022-09-02T12:00:00;28.20;30.30
21770;DHT22;11046;49.558;8.674;2022-09-02T12:02:53;28.20;30.30
21770;DHT22;11046;49.558;8.674;2022-09-02T12:06:12;28.10;30.30
21770;DHT22;11046;49.558;8.674;2022-09-02T12:09:45;28.00;30.00
21770;DHT22;11046;49.558;8.674;2022-09-02T12:19:31;28.00;30.00
21770;DHT22;11046;49.558;8.674;2022-09-02T12:22:53;28.20;30.00
21770;DHT22;11046;49.558;8.674;2022-09-02T12:26:05;28.20;29.80
21770;DHT22;11046;49.558;8.674;2022-09-02T12:33:27;28.20;29.30
21770;DHT22;11046;49.558;8.674;2022-09-02T12:37:03;28.00;29.80
21770;DHT22;11046;49.558;8.674;2022-09-02T12:40:13;27.90;29.50
21770;DHT22;11046;49.558;8.674;2022-09-02T12:50:50;27.60;29.20
21770;DHT22;11046;49.558;8.674;2022-09-02T12:53:57;27.60;29.60
21770;DHT22;11046;49.558;8.674;2022-09-02T13:04:54;28.00;29.40
21770;DHT22;11046;49.558;8.674;2022-09-02T13:08:22;28.00;29.40
21770;DHT22;11046;49.558;8.674;2022-09-02T13:34:04;28.20;30.20
21770;DHT22;11046;49.558;8.674;2022-09-02T13:37:26;28.10;29.70
21770;DHT22;11046;49.558;8.674;2022-09-02T13:40:32;28.00;29.90
21770;DHT22;11046;49.558;8.674;2022-09-02T13:43:34;27.90;30.00
21770;DHT22;11046;49.558;8.674;2022-09-02T13:46:43;28.10;30.30
21770;DHT22;11046;49.558;8.674;2022-09-02T13:49:50;28.30;29.60
21770;DHT22;11046;49.558;8.674;2022-09-02T13:53:04;28.30;29.20
21770;DHT22;11046;49.558;8.674;2022-09-02T13:56:09;28.20;29.40
21770;DHT22;11046;49.558;8.674;2022-09-02T13:59:13;28.30;29.30
21770;DHT22;11046;49.558;8.674;2022-09-02T14:05:30;28.10;28.50
21770;DHT22;11046;49.558;8.674;2022-09-02T14:08:32;28.20;29.00
21770;DHT22;11046;49.558;8.674;2022-09-02T14:12:14;28.50;28.80
21770;DHT22;11046;49.558;8.674;2022-09-02T14:15:49;29.00;28.30
21770;DHT22;11046;49.558;8.674;2022-09-02T14:22:28;29.80;28.00
21770;DHT22;11046;49.558;8.674;2022-09-02T14:25:36;30.20;26.90
21770;DHT22;11046;49.558;8.674;2022-09-02T14:28:37;29.80;26.80
21770;DHT22;11046;49.558;8.674;2022-09-02T14:31:39;29.30;27.10
21770;DHT22;11046;49.558;8.674;2022-09-02T14:34:42;28.80;27.30
21770;DHT22;11046;49.558;8.674;2022-09-02T14:38:02;28.20;27.70
21770;DHT22;11046;49.558;8.674;2022-09-02T14:41:23;27.80;28.30
21770;DHT22;11046;49.558;8.674;2022-09-02T14:44:27;27.70;28.40
21770;DHT22;11046;49.558;8.674;2022-09-02T14:47:36;27.40;28.30
21770;DHT22;11046;49.558;8.674;2022-09-02T14:50:38;27.20;28.40
21770;DHT22;11046;49.558;8.674;2022-09-02T14:53:42;27.10;28.70
21770;DHT22;11046;49.558;8.674;2022-09-02T14:56:51;27.10;28.70
21770;DHT22;11046;49.558;8.674;2022-09-02T14:59:52;27.00;28.50
21770;DHT22;11046;49.558;8.674;2022-09-02T15:02:55;26.90;28.70
21770;DHT22;11046;49.558;8.674;2022-09-02T15:05:56;26.80;28.70
21770;DHT22;11046;49.558;8.674;2022-09-02T15:08:56;26.60;28.80
21770;DHT22;11046;49.558;8.674;2022-09-02T15:11:57;26.60;28.80
21770;DHT22;11046;49.558;8.674;2022-09-02T15:14:58;26.40;28.90
21770;DHT22;11046;49.558;8.674;2022-09-02T15:17:59;26.40;29.00
21770;DHT22;11046;49.558;8.674;2022-09-02T15:21:00;26.30;29.00
21770;DHT22;11046;49.558;8.674;2022-09-02T15:24:02;26.20;29.00
21770;DHT22;11046;49.558;8.674;2022-09-02T15:27:03;26.10;29.10
21770;DHT22;11046;49.558;8.674;2022-09-02T15:30:06;26.00;29.10
21770;DHT22;11046;49.558;8.674;2022-09-02T15:33:08;26.00;29.20
21770;DHT22;11046;49.558;8.674;2022-09-02T15:36:13;25.90;29.30
21770;DHT22;11046;49.558;8.674;2022-09-02T15:39:14;25.80;29.50
21770;DHT22;11046;49.558;8.674;2022-09-02T15:42:15;25.70;29.50
21770;DHT22;11046;49.558;8.674;2022-09-02T15:45:17;25.70;29.50
21770;DHT22;11046;49.558;8.674;2022-09-02T15:48:18;25.70;29.60
21770;DHT22;11046;49.558;8.674;2022-09-02T15:51:22;25.50;29.60
21770;DHT22;11046;49.558;8.674;2022-09-02T15:54:23;25.50;29.60
21770;DHT22;11046;49.558;8.674;2022-09-02T15:57:24;25.40;29.70
21770;DHT22;11046;49.558;8.674;2022-09-02T16:00:25;25.20;29.80
21770;DHT22;11046;49.558;8.674;2022-09-02T16:03:26;25.20;29.90
21770;DHT22;11046;49.558;8.674;2022-09-02T16:06:28;25.20;29.90
21770;DHT22;11046;49.558;8.674;2022-09-02T16:09:29;25.10;29.90
21770;DHT22;11046;49.558;8.674;2022-09-02T16:12:30;25.10;30.00
21770;DHT22;11046;49.558;8.674;2022-09-02T16:15:31;25.20;29.90
21770;DHT22;11046;49.558;8.674;2022-09-02T16:18:33;25.10;30.00
21770;DHT22;11046;49.558;8.674;2022-09-02T16:21:34;25.10;30.00
21770;DHT22;11046;49.558;8.674;2022-09-02T16:24:38;25.00;30.00
21770;DHT22;11046;49.558;8.674;2022-09-02T16:27:39;25.00;30.20
21770;DHT22;11046;49.558;8.674;2022-09-02T16:30:52;24.90;30.30
21770;DHT22;11046;49.558;8.674;2022-09-02T16:34:04;24.80;30.50
21770;DHT22;11046;49.558;8.674;2022-09-02T16:37:05;24.70;30.50
21770;DHT22;11046;49.558;8.674;2022-09-02T16:40:06;24.70;30.50
21770;DHT22;11046;49.558;8.674;2022-09-02T16:43:08;24.70;30.50
21770;DHT22;11046;49.558;8.674;2022-09-02T16:46:09;24.70;31.00
21770;DHT22;11046;49.558;8.674;2022-09-02T16:49:13;24.70;31.10
21770;DHT22;11046;49.558;8.674;2022-09-02T16:52:17;24.70;31.10
21770;DHT22;11046;49.558;8.674;2022-09-02T16:55:18;24.50;31.00
21770;DHT22;11046;49.558;8.674;2022-09-02T16:58:19;24.50;31.00
21770;DHT22;11046;49.558;8.674;2022-09-02T17:01:21;24.40;31.10
21770;DHT22;11046;49.558;8.674;2022-09-02T17:04:22;24.30;31.30
21770;DHT22;11046;49.558;8.674;2022-09-02T17:07:23;24.30;31.40
21770;DHT22;11046;49.558;8.674;2022-09-02T17:10:24;24.20;31.40
21770;DHT22;11046;49.558;8.674;2022-09-02T17:13:25;24.20;31.50
21770;DHT22;11046;49.558;8.674;2022-09-02T17:16:28;24.10;31.50
21770;DHT22;11046;49.558;8.674;2022-09-02T17:19:29;24.00;31.60
21770;DHT22;11046;49.558;8.674;2022-09-02T17:22:32;24.00;31.80
21770;DHT22;11046;49.558;8.674;2022-09-02T17:25:32;24.00;31.90
21770;DHT22;11046;49.558;8.674;2022-09-02T17:28:33;23.80;32.10
21770;DHT22;11046;49.558;8.674;2022-09-02T17:31:33;23.80;32.40
21770;DHT22;11046;49.558;8.674;2022-09-02T17:34:35;23.70;32.40
21770;DHT22;11046;49.558;8.674;2022-09-02T17:37:36;23.70;32.70
21770;DHT22;11046;49.558;8.674;2022-09-02T17:40:36;23.60;32.70
21770;DHT22;11046;49.558;8.674;2022-09-02T17:43:56;23.70;32.70
21770;DHT22;11046;49.558;8.674;2022-09-02T17:46:56;23.60;32.70
21770;DHT22;11046;49.558;8.674;2022-09-02T17:49:57;23.60;33.20
21770;DHT22;11046;49.558;8.674;2022-09-02T17:53:01;23.40;33.30
21770;DHT22;11046;49.558;8.674;2022-09-02T18:00:33;23.20;33.80
21770;DHT22;11046;49.558;8.674;2022-09-02T18:03:38;23.00;34.00
21770;DHT22;11046;49.558;8.674;2022-09-02T18:06:41;22.90;34.60
21770;DHT22;11046;49.558;8.674;2022-09-02T18:09:46;22.90;34.70
21770;DHT22;11046;49.558;8.674;2022-09-02T18:12:47;22.70;35.10
21770;DHT22;11046;49.558;8.674;2022-09-02T18:16:03;22.70;35.70
21770;DHT22;11046;49.558;8.674;2022-09-02T18:20:02;22.60;36.40
21770;DHT22;11046;49.558;8.674;2022-09-02T18:22:51;22.40;36.90
21770;DHT22;11046;49.558;8.674;2022-09-02T18:36:23;22.00;37.80
21770;DHT22;11046;49.558;8.674;2022-09-02T18:45:58;21.90;38.50
21770;DHT22;11046;49.558;8.674;2022-09-02T18:49:01;21.80;38.40
21770;DHT22;11046;49.558;8.674;2022-09-02T18:52:07;21.80;38.80
21770;DHT22;11046;49.558;8.674;2022-09-02T18:55:14;21.70;39.00
21770;DHT22;11046;49.558;8.674;2022-09-02T19:01:28;21.50;39.60
21770;DHT22;11046;49.558;8.674;2022-09-02T19:04:35;21.40;39.70
21770;DHT22;11046;49.558;8.674;2022-09-02T19:07:36;21.30;39.40
21770;DHT22;11046;49.558;8.674;2022-09-02T19:11:11;21.20;39.50
21770;DHT22;11046;49.558;8.674;2022-09-02T19:14:26;21.10;39.80
21770;DHT22;11046;49.558;8.674;2022-09-02T19:17:27;21.00;40.00
21770;DHT22;11046;49.558;8.674;2022-09-02T19:20:28;20.80;40.00
21770;DHT22;11046;49.558;8.674;2022-09-02T19:23:30;20.60;40.00
21770;DHT22;11046;49.558;8.674;2022-09-02T19:26:31;20.60;40.10
21770;DHT22;11046;49.558;8.674;2022-09-02T19:29:36;20.60;40.30
21770;DHT22;11046;49.558;8.674;2022-09-02T19:32:39;20.50;40.40
21770;DHT22;11046;49.558;8.674;2022-09-02T19:35:46;20.50;40.50
21770;DHT22;11046;49.558;8.674;2022-09-02T19:38:48;20.40;40.60
21770;DHT22;11046;49.558;8.674;2022-09-02T19:41:49;20.30;40.60
21770;DHT22;11046;49.558;8.674;2022-09-02T19:44:51;20.30;40.60
21770;DHT22;11046;49.558;8.674;2022-09-02T19:47:55;20.30;40.60
21770;DHT22;11046;49.558;8.674;2022-09-02T19:51:00;20.20;40.60
21770;DHT22;11046;49.558;8.674;2022-09-02T19:54:05;20.20;40.60
21770;DHT22;11046;49.558;8.674;2022-09-02T19:57:06;20.20;40.60
21770;DHT22;11046;49.558;8.674;2022-09-02T20:00:09;20.20;40.60
21770;DHT22;11046;49.558;8.674;2022-09-02T20:03:14;20.20;40.60
21770;DHT22;11046;49.558;8.674;2022-09-02T20:06:16;20.20;40.60
21770;DHT22;11046;49.558;8.674;2022-09-02T20:09:19;20.20;40.40
21770;DHT22;11046;49.558;8.674;2022-09-02T20:12:26;20.20;40.20
21770;DHT22;11046;49.558;8.674;2022-09-02T20:15:39;20.20;40.10
21770;DHT22;11046;49.558;8.674;2022-09-02T20:18:52;20.20;40.40
21770;DHT22;11046;49.558;8.674;2022-09-02T20:21:53;20.20;40.40
21770;DHT22;11046;49.558;8.674;2022-09-02T20:24:56;20.20;40.20
21770;DHT22;11046;49.558;8.674;2022-09-02T20:28:08;20.20;40.20
21770;DHT22;11046;49.558;8.674;2022-09-02T20:45:02;20.20;39.80
21770;DHT22;11046;49.558;8.674;2022-09-02T20:54:43;20.30;39.80
21770;DHT22;11046;49.558;8.674;2022-09-02T21:01:34;20.20;39.90
21770;DHT22;11046;49.558;8.674;2022-09-02T21:04:53;20.20;40.10
21770;DHT22;11046;49.558;8.674;2022-09-02T21:08:05;20.20;40.30
21770;DHT22;11046;49.558;8.674;2022-09-02T21:11:07;20.10;40.70
21770;DHT22;11046;49.558;8.674;2022-09-02T21:14:21;20.00;40.60
21770;DHT22;11046;49.558;8.674;2022-09-02T21:17:46;20.00;40.60
21770;DHT22;11046;49.558;8.674;2022-09-02T21:21:00;20.00;40.60
21770;DHT22;11046;49.558;8.674;2022-09-02T21:24:09;20.00;40.80
21770;DHT22;11046;49.558;8.674;2022-09-02T21:27:43;19.90;40.70
21770;DHT22;11046;49.558;8.674;2022-09-02T21:31:02;19.90;40.80
21770;DHT22;11046;49.558;8.674;2022-09-02T21:34:09;19.80;40.90
21770;DHT22;11046;49.558;8.674;2022-09-02T21:37:15;19.80;40.70
21770;DHT22;11046;49.558;8.674;2022-09-02T21:40:20;19.80;40.80
21770;DHT22;11046;49.558;8.674;2022-09-02T21:46:28;19.70;40.90
21770;DHT22;11046;49.558;8.674;2022-09-02T22:00:12;19.70;41.00
21770;DHT22;11046;49.558;8.674;2022-09-02T22:03:37;19.60;41.00
21770;DHT22;11046;49.558;8.674;2022-09-02T22:11:14;19.60;41.30
21770;DHT22;11046;49.558;8.674;2022-09-02T22:18:08;19.50;41.40
21770;DHT22;11046;49.558;8.674;2022-09-02T22:21:41;19.60;41.30
21770;DHT22;11046;49.558;8.674;2022-09-02T22:25:41;19.60;41.40
21770;DHT22;11046;49.558;8.674;2022-09-02T22:29:32;19.60;41.40
21770;DHT22;11046;49.558;8.674;2022-09-02T22:32:56;19.60;41.60
21770;DHT22;11046;49.558;8.674;2022-09-02T22:36:24;19.50;41.50
21770;DHT22;11046;49.558;8.674;2022-09-02T22:39:51;19.50;41.70
21770;DHT22;11046;49.558;8.674;2022-09-02T22:43:00;19.50;41.80
21770;DHT22;11046;49.558;8.674;2022-09-02T22:46:10;19.40;41.80
21770;DHT22;11046;49.558;8.674;2022-09-02T22:49:35;19.40;41.90
21770;DHT22;11046;49.558;8.674;2022-09-02T22:52:55;19.40;41.90
21770;DHT22;11046;49.558;8.674;2022-09-02T22:56:19;19.50;41.90